Time;durP1;ratioP1;P1;durP2;ratioP2;P2;SDS_P1;SDS_P2;PMS_P1;PMS_P2;Temp;Humidity;BMP_temperature;BMP_pressure;BME280_temperature;BME280_humidity;BME280_pressure;Samples;Min_cycle;Max_cycle;Signal;HPM_P1;HPM_P2
2022/01/29 00:02:46;;;;;;;22.25;3.97;;;;;;;1.76;74.88;101332.47;10459586;28;20044;-71
2022/01/29 00:07:49;;;;;;;23.88;3.72;;;;;;;1.74;74.92;101311.69;10457730;28;20417;-71
2022/01/29 00:12:51;;;;;;;16.02;4.32;;;;;;;1.77;74.86;101309.19;10458592;28;20406;-71
2022/01/29 00:17:52;;;;;;;15.75;3.08;;;;;;;1.76;74.68;101319.50;10457613;28;20084;-71
2022/01/29 00:22:54;;;;;;;21.48;3.75;;;;;;;1.68;74.98;101311.56;10457478;28;20051;-71
2022/01/29 00:27:59;;;;;;;22.77;3.97;;;;;;;1.72;74.91;101320.25;10461129;28;20402;-71
2022/01/29 00:33:03;;;;;;;18.60;4.07;;;;;;;1.48;75.80;101326.59;10431022;28;20079;-72
2022/01/29 00:38:09;;;;;;;16.55;4.88;;;;;;;1.52;75.65;101314.59;10459862;28;20299;-70
2022/01/29 00:43:12;;;;;;;13.27;3.05;;;;;;;1.42;76.16;101308.31;10458009;28;20159;-71
2022/01/29 00:48:15;;;;;;;16.70;4.03;;;;;;;1.56;75.26;101289.63;10456300;28;20532;-70
2022/01/29 00:53:16;;;;;;;13.75;3.17;;;;;;;1.60;75.35;101288.88;10455891;28;20043;-70
2022/01/29 00:58:20;;;;;;;18.95;4.75;;;;;;;1.50;75.42;101283.44;10457664;28;20053;-71
2022/01/29 01:03:24;;;;;;;18.45;3.30;;;;;;;1.54;75.14;101265.38;10439937;28;20387;-71
2022/01/29 01:08:25;;;;;;;28.05;4.13;;;;;;;1.59;74.49;101256.88;10455543;28;20048;-71
2022/01/29 01:13:29;;;;;;;15.05;3.38;;;;;;;1.36;75.48;101248.53;10459592;28;20139;-72
2022/01/29 01:18:31;;;;;;;13.65;3.20;;;;;;;1.14;76.32;101249.69;10456978;28;20045;-70
2022/01/29 01:23:33;;;;;;;19.52;3.38;;;;;;;1.00;76.83;101235.53;10458724;23;20049;-75
2022/01/29 01:28:36;;;;;;;13.32;3.97;;;;;;;0.98;77.39;101251.03;10449787;28;20041;-75
2022/01/29 01:33:37;;;;;;;13.10;3.38;;;;;;;1.07;77.28;101247.81;10442277;28;20060;-76
2022/01/29 01:38:48;;;;;;;16.80;3.85;;;;;;;0.93;78.09;101238.78;10459842;28;20103;-76
2022/01/29 01:43:50;;;;;;;11.65;3.33;;;;;;;1.17;77.42;101226.47;10458201;28;20124;-76
2022/01/29 01:48:52;;;;;;;18.95;4.88;;;;;;;1.18;77.45;101211.81;10457505;28;20516;-76
2022/01/29 01:53:53;;;;;;;10.88;2.42;;;;;;;1.35;75.50;101218.28;10458757;28;20044;-76
2022/01/29 01:58:56;;;;;;;13.35;2.80;;;;;;;1.61;74.81;101216.34;10441160;28;20068;-77
2022/01/29 02:03:59;;;;;;;14.13;3.83;;;;;;;1.71;74.01;101186.31;10441333;28;20139;-76
2022/01/29 02:09:01;;;;;;;10.65;3.17;;;;;;;1.96;72.62;101182.56;10458700;28;20391;-76
2022/01/29 02:14:03;;;;;;;12.45;2.85;;;;;;;2.13;71.52;101150.06;10458782;28;20517;-76
2022/01/29 02:19:05;;;;;;;20.40;3.70;;;;;;;1.95;72.77;101137.59;10460343;28;20040;-75
2022/01/29 02:24:07;;;;;;;18.75;3.67;;;;;;;2.21;71.10;101106.09;10448630;28;20052;-76
2022/01/29 02:29:09;;;;;;;16.45;3.35;;;;;;;2.44;69.78;101104.84;10464663;28;20510;-75
2022/01/29 02:34:11;;;;;;;14.30;3.55;;;;;;;2.48;68.80;101093.66;10447087;28;20136;-77
2022/01/29 02:39:16;;;;;;;13.38;2.53;;;;;;;2.61;67.54;101089.56;10446569;28;20087;-77
2022/01/29 02:44:21;;;;;;;17.10;4.45;;;;;;;2.50;68.23;101067.72;10463853;28;20047;-76
2022/01/29 02:49:25;;;;;;;14.82;3.38;;;;;;;2.59;67.54;101062.69;10447148;28;20115;-77
2022/01/29 02:54:27;;;;;;;16.75;3.35;;;;;;;2.66;67.20;101058.50;10463928;28;20045;-76
2022/01/29 02:59:28;;;;;;;10.10;2.70;;;;;;;2.66;67.46;101061.09;10445878;28;20053;-76
2022/01/29 03:04:30;;;;;;;12.35;2.42;;;;;;;2.62;67.76;101054.97;10463395;28;20110;-76
2022/01/29 03:09:32;;;;;;;11.30;2.53;;;;;;;2.71;67.13;101026.56;10445802;28;20114;-76
2022/01/29 03:14:33;;;;;;;26.88;3.83;;;;;;;2.69;67.71;101024.78;10464489;28;20048;-76
2022/01/29 03:19:35;;;;;;;8.15;2.45;;;;;;;2.78;67.67;101014.53;10462892;28;20061;-75
2022/01/29 03:24:37;;;;;;;15.65;3.25;;;;;;;2.75;68.09;101025.75;10445003;28;20434;-75
2022/01/29 03:29:39;;;;;;;9.02;2.72;;;;;;;2.85;68.37;101026.78;10443678;28;20044;-76
2022/01/29 03:34:41;;;;;;;15.93;2.50;;;;;;;2.96;67.99;101014.81;10443181;28;20051;-76
2022/01/29 03:39:44;;;;;;;9.68;2.67;;;;;;;2.89;68.58;101002.59;10461806;28;20041;-76
2022/01/29 03:44:47;;;;;;;13.32;3.15;;;;;;;2.99;69.07;100996.69;10461978;28;20044;-76
2022/01/29 03:49:49;;;;;;;9.80;2.92;;;;;;;3.14;68.46;100987.34;10461856;28;20047;-77
2022/01/29 03:54:51;;;;;;;11.57;3.28;;;;;;;3.08;69.31;100972.56;10443186;28;20053;-76
2022/01/29 03:59:53;;;;;;;9.90;2.90;;;;;;;3.11;69.18;100956.16;10443584;28;20498;-76
2022/01/29 04:04:58;;;;;;;8.98;2.50;;;;;;;3.16;69.29;100960.56;10460632;28;20044;-75
2022/01/29 04:10:00;;;;;;;15.00;3.25;;;;;;;3.10;69.79;100951.78;10442605;28;20080;-75
2022/01/29 04:15:02;;;;;;;11.13;2.65;;;;;;;3.15;69.81;100942.38;10442793;28;20154;-76
2022/01/29 04:20:04;;;;;;;9.65;3.03;;;;;;;3.20;69.74;100953.69;10461443;28;20052;-76
2022/01/29 04:25:07;;;;;;;9.05;3.05;;;;;;;3.23;69.67;100925.13;10463010;28;20098;-76
2022/01/29 04:30:40;;;;;;;13.60;2.80;;;;;;;3.34;69.27;100917.47;10445296;28;20052;-74
2022/01/29 04:35:32;;;;;;;11.73;2.88;;;;;;;3.33;69.76;100898.41;10447676;28;20483;-74
2022/01/29 04:40:48;;;;;;;11.27;3.40;;;;;;;3.28;69.89;100905.28;10320979;28;20482;-74
2022/01/29 04:45:49;;;;;;;6.78;3.10;;;;;;;3.45;69.81;100889.84;10319357;28;20050;-74
2022/01/29 04:50:51;;;;;;;9.63;4.05;;;;;;;3.36;70.45;100884.56;10318632;28;20050;-74
2022/01/29 04:55:53;;;;;;;6.03;3.58;;;;;;;3.33;70.78;100872.44;10317832;28;20508;-74
2022/01/29 05:00:54;;;;;;;6.35;3.33;;;;;;;3.39;70.95;100862.09;10335734;28;20062;-74
2022/01/29 05:06:01;;;;;;;7.00;3.53;;;;;;;3.43;71.03;100829.22;10334168;28;20046;-73
2022/01/29 05:11:08;;;;;;;8.10;4.50;;;;;;;3.42;71.51;100825.75;10402005;28;20148;-74
2022/01/29 05:32:12;;;;;;;8.95;6.53;;;;;;;3.41;72.48;100804.91;10293892;28;20086;-73
2022/01/29 05:37:14;;;;;;;9.00;6.60;;;;;;;3.41;72.69;100795.41;10294039;28;20141;-73
2022/01/29 05:42:16;;;;;;;8.43;7.13;;;;;;;3.51;72.20;100785.97;10295181;28;20130;-73
2022/01/29 05:47:17;;;;;;;7.80;6.97;;;;;;;3.56;72.24;100771.28;10279549;28;20555;-73
2022/01/29 05:52:19;;;;;;;8.98;7.10;;;;;;;3.54;72.21;100758.28;10279130;28;20047;-73
2022/01/29 05:57:21;;;;;;;9.40;6.88;;;;;;;3.62;72.20;100770.44;10303270;28;20055;-73
2022/01/29 06:02:23;;;;;;;9.73;7.95;;;;;;;3.64;72.36;100759.22;10410506;28;20521;-73
2022/01/29 06:07:25;;;;;;;9.90;9.00;;;;;;;3.70;72.34;100766.19;10453777;28;20041;-74
2022/01/29 06:12:26;;;;;;;9.70;8.77;;;;;;;3.73;72.49;100754.09;10471122;28;20445;-73
2022/01/29 06:17:28;;;;;;;8.85;7.95;;;;;;;3.71;72.69;100742.78;10453929;28;20037;-73
2022/01/29 06:22:32;;;;;;;10.65;8.68;;;;;;;3.66;73.40;100743.63;10453206;28;20081;-74
2022/01/29 06:27:34;;;;;;;10.10;9.25;;;;;;;3.78;72.91;100717.72;10471768;28;20422;-74
2022/01/29 06:32:37;;;;;;;9.95;8.95;;;;;;;3.83;72.83;100709.94;10452745;28;20406;-73
2022/01/29 06:37:39;;;;;;;9.95;8.95;;;;;;;3.81;73.25;100707.34;10471040;28;20048;-74
2022/01/29 06:42:41;;;;;;;11.55;10.57;;;;;;;3.82;73.03;100693.47;10468083;28;20053;-74
2022/01/29 06:47:43;;;;;;;10.68;9.77;;;;;;;3.80;73.75;100671.78;10450974;28;20041;-73
2022/01/29 06:52:44;;;;;;;11.25;10.05;;;;;;;3.89;73.34;100666.63;10468555;28;20049;-74
2022/01/29 06:57:47;;;;;;;10.73;9.65;;;;;;;3.93;73.52;100659.72;10450563;28;20144;-73
2022/01/29 07:03:09;;;;;;;10.52;9.52;;;;;;;4.00;73.73;100662.34;10469296;28;20395;-73
2022/01/29 07:08:11;;;;;;;10.63;9.70;;;;;;;4.00;73.65;100657.16;10468498;28;20049;-73
2022/01/29 07:13:13;;;;;;;10.27;9.30;;;;;;;3.98;74.12;100653.66;10468499;28;20047;-73
2022/01/29 07:18:15;;;;;;;9.75;8.93;;;;;;;4.00;74.55;100649.34;10466996;28;20405;-74
2022/01/29 07:23:17;;;;;;;9.73;8.68;;;;;;;4.13;73.83;100624.25;10452156;28;20041;-74
2022/01/29 07:28:19;;;;;;;9.93;9.02;;;;;;;4.12;74.07;100627.72;10451465;28;20120;-74
2022/01/29 07:33:21;;;;;;;9.90;9.15;;;;;;;4.04;74.92;100617.28;10468370;28;20095;-73
2022/01/29 07:38:22;;;;;;;11.20;10.20;;;;;;;4.05;75.92;100618.16;10467375;28;20042;-74
2022/01/29 07:43:24;;;;;;;11.02;9.93;;;;;;;3.92;77.88;100606.81;10449113;28;20041;-74
2022/01/29 07:48:26;;;;;;;10.43;9.43;;;;;;;3.88;78.71;100599.88;10447791;28;20603;-74
2022/01/29 07:53:28;;;;;;;10.55;9.48;;;;;;;3.88;78.27;100589.47;10464011;28;20529;-74
2022/01/29 07:58:30;;;;;;;9.25;8.45;;;;;;;3.92;78.13;100573.00;10466383;28;20041;-74
2022/01/29 08:03:32;;;;;;;9.77;8.70;;;;;;;3.93;79.43;100566.94;10451153;28;20403;-75
2022/01/29 08:08:34;;;;;;;10.15;9.15;;;;;;;3.86;80.73;100554.78;10469873;28;20096;-77
2022/01/29 08:13:37;;;;;;;10.00;9.10;;;;;;;3.72;82.51;100554.75;10450153;28;20176;-75
2022/01/29 08:18:41;;;;;;;9.63;8.73;;;;;;;3.58;84.23;100543.38;10466483;28;20046;-76
2022/01/29 08:23:44;;;;;;;10.30;9.32;;;;;;;3.53;85.08;100530.38;10466321;28;20336;-76
2022/01/29 08:28:47;;;;;;;10.15;9.32;;;;;;;3.50;86.13;100519.13;10453024;28;20037;-76
2022/01/29 08:33:49;;;;;;;9.63;8.82;;;;;;;3.49;85.84;100519.94;10474323;28;20124;-76
2022/01/29 08:38:52;;;;;;;9.13;8.32;;;;;;;3.53;85.79;100496.56;10474621;28;20041;-77
2022/01/29 08:43:54;;;;;;;8.07;7.35;;;;;;;3.56;85.70;100503.53;10441735;28;20045;-77
2022/01/29 08:48:56;;;;;;;8.38;7.63;;;;;;;3.68;85.97;100489.72;10473077;28;20037;-78
2022/01/29 08:53:58;;;;;;;8.43;7.72;;;;;;;3.63;86.24;100481.91;10473499;28;20041;-77
2022/01/29 08:59:01;;;;;;;8.45;7.70;;;;;;;3.62;86.88;100468.88;10454640;28;20400;-76
2022/01/29 09:04:03;;;;;;;7.65;6.95;;;;;;;3.61;87.00;100459.38;10452754;28;20090;-76
2022/01/29 09:09:05;;;;;;;7.45;6.80;;;;;;;3.59;88.74;100467.16;10453200;28;20061;-75
2022/01/29 09:14:08;;;;;;;6.80;6.18;;;;;;;3.64;88.57;100459.38;10475461;28;20552;-76
2022/01/29 09:19:10;;;;;;;7.35;6.65;;;;;;;3.57;89.26;100448.06;10451788;28;20095;-76
2022/01/29 09:24:13;;;;;;;7.40;6.53;;;;;;;3.59;90.02;100435.97;10470411;28;20060;-76
2022/01/29 09:29:18;;;;;;;7.40;6.70;;;;;;;3.70;89.44;100436.00;10469946;28;20057;-76
2022/01/29 09:34:21;;;;;;;7.10;6.50;;;;;;;3.67;90.33;100430.78;10450975;28;20072;-77
2022/01/29 09:39:22;;;;;;;7.35;6.65;;;;;;;3.73;90.63;100426.47;10467858;28;20051;-77
2022/01/29 09:44:25;;;;;;;7.05;6.35;;;;;;;3.78;90.91;100421.28;10468438;28;20154;-76
2022/01/29 09:49:32;;;;;;;6.68;6.05;;;;;;;3.89;90.59;100414.34;10468122;28;20128;-76
2022/01/29 09:54:34;;;;;;;6.03;5.50;;;;;;;3.92;90.27;100413.50;10467201;28;20061;-77
2022/01/29 09:59:36;;;;;;;6.30;5.70;;;;;;;3.93;90.05;100403.09;10431867;28;20049;-76
2022/01/29 10:05:12;;;;;;;6.40;5.80;;;;;;;3.94;91.50;100401.34;10448985;28;20053;-76
2022/01/29 10:10:19;;;;;;;6.70;6.00;;;;;;;3.98;91.54;100405.69;10380597;28;20108;-76
2022/01/29 10:15:22;;;;;;;6.17;5.67;;;;;;;4.10;90.71;100395.28;10378814;28;20057;-76
2022/01/29 10:20:29;;;;;;;5.57;5.18;;;;;;;4.20;89.84;100414.38;10365812;28;20058;-76
2022/01/29 10:25:34;;;;;;;6.13;5.53;;;;;;;4.34;89.29;100402.25;10348214;28;20053;-75
2022/01/29 10:30:47;;;;;;;6.68;6.07;;;;;;;4.34;90.21;100389.25;10363956;28;20053;-76
2022/01/29 10:35:53;;;;;;;6.50;5.90;;;;;;;4.33;90.01;100399.63;10349259;28;20038;-75
2022/01/29 10:41:26;;;;;;;6.35;5.75;;;;;;;4.48;89.88;100358.84;10368734;28;20050;-75
2022/01/29 10:46:31;;;;;;;6.57;5.70;;;;;;;4.63;88.32;100359.69;10452730;28;20045;-75
2022/01/29 10:51:34;;;;;;;5.72;5.22;;;;;;;4.70;87.25;100348.38;10459113;28;20140;-76
2022/01/29 10:56:51;;;;;;;6.43;5.93;;;;;;;4.72;87.93;100351.84;10475211;28;20132;-75
2022/01/29 11:02:02;;;;;;;7.32;6.68;;;;;;;4.72;88.43;100346.63;10458499;28;20060;-76
2022/01/29 11:07:11;;;;;;;6.30;5.75;;;;;;;4.81;87.23;100331.84;10458004;28;20037;-76
2022/01/29 11:12:17;;;;;;;4.65;4.25;;;;;;;4.97;84.86;100300.53;10438853;28;20060;-75
2022/01/29 11:17:22;;;;;;;6.13;5.63;;;;;;;4.94;86.23;100285.78;10452403;28;20056;-75
2022/01/29 11:22:30;;;;;;;5.68;5.18;;;;;;;5.15;83.83;100258.75;10468095;28;20101;-75
2022/01/29 11:27:37;;;;;;;5.82;5.18;;;;;;;5.30;83.62;100237.78;10452009;28;20044;-75
2022/01/29 11:32:40;;;;;;;;;;;;;;;5.42;82.15;100225.53;10451094;28;20045;-75
2022/01/29 11:38:01;;;;;;;4.47;4.07;;;;;;;5.40;83.02;100220.34;10469817;28;19921;-75
2022/01/29 11:43:09;;;;;;;4.85;4.28;;;;;;;5.29;82.70;100227.38;10451186;28;20059;-76
2022/01/29 11:48:23;;;;;;;4.13;3.72;;;;;;;5.43;82.02;100206.41;10471334;28;20544;-75
2022/01/29 11:53:45;;;;;;;5.00;3.92;;;;;;;5.96;80.00;100225.97;10448831;28;20040;-75
2022/01/29 11:58:47;;;;;;;4.05;3.75;;;;;;;5.78;80.02;100186.09;10451425;28;20131;-76
2022/01/29 12:03:53;;;;;;;3.90;3.60;;;;;;;5.77;79.79;100213.06;10453290;28;20075;-75
2022/01/29 12:09:04;;;;;;;4.13;3.72;;;;;;;5.83;80.38;100191.25;10451025;28;20487;-75
2022/01/29 12:14:12;;;;;;;3.47;3.10;;;;;;;5.92;78.64;100166.84;10445814;28;20056;-76
2022/01/29 12:19:33;;;;;;;5.32;3.40;;;;;;;5.83;78.63;100149.53;10464001;28;20041;-75
2022/01/29 12:24:34;;;;;;;3.17;2.70;;;;;;;6.00;76.85;100131.13;10429432;28;20045;-75
2022/01/29 12:29:36;;;;;;;7.43;6.72;;;;;;;6.16;77.31;100119.63;10462716;28;20052;-76
2022/01/29 12:34:39;;;;;;;4.57;4.03;;;;;;;6.06;77.57;100123.19;10463209;28;20057;-75
2022/01/29 12:39:44;;;;;;;4.30;3.30;;;;;;;6.13;77.12;100124.00;10444423;28;20063;-76
2022/01/29 12:44:51;;;;;;;2.70;2.38;;;;;;;6.36;75.22;100121.09;10462925;28;20041;-77
2022/01/29 12:49:54;;;;;;;3.05;2.13;;;;;;;6.39;75.34;100121.94;10430598;28;20486;-76
2022/01/29 12:55:01;;;;;;;2.05;1.85;;;;;;;6.19;76.08;100103.03;10461257;28;20512;-74
2022/01/29 13:00:06;;;;;;;;;;;;;;;6.14;75.23;100090.03;10461997;28;20041;-75
2022/01/29 13:05:28;;;;;;;2.03;1.80;;;;;;;6.07;76.55;100075.38;10458295;28;19963;-75
2022/01/29 13:10:32;;;;;;;2.15;1.50;;;;;;;6.08;75.67;100092.75;10463904;28;20041;-74
2022/01/29 13:15:39;;;;;;;1.40;1.30;;;;;;;5.93;76.15;100085.97;10447617;28;20049;-74
2022/01/29 13:20:41;;;;;;;1.88;1.48;;;;;;;5.94;75.82;100068.59;10464535;28;20037;-74
2022/01/29 13:25:43;;;;;;;1.60;1.50;;;;;;;5.92;75.88;100071.19;10430506;28;20419;-75
2022/01/29 13:30:46;;;;;;;1.60;1.50;;;;;;;6.00;75.77;100074.56;10441422;23;20087;-70
2022/01/29 13:35:52;;;;;;;2.83;1.40;;;;;;;5.90;75.88;100061.63;10456912;28;20060;-70
2022/01/29 13:40:57;;;;;;;1.70;1.37;;;;;;;5.95;75.84;100047.69;10455861;28;20041;-71
2022/01/29 13:46:08;;;;;;;1.00;0.90;;;;;;;6.06;74.46;100030.16;10455945;28;20629;-71
2022/01/29 13:51:11;;;;;;;1.15;1.05;;;;;;;6.06;75.29;100024.03;10439377;28;20506;-71
2022/01/29 13:56:14;;;;;;;1.13;0.90;;;;;;;6.19;73.58;100022.13;10455698;28;20037;-70
2022/01/29 14:01:39;;;;;;;1.23;1.02;;;;;;;6.01;74.96;100016.28;10435677;28;20041;-71
2022/01/29 14:06:47;;;;;;;1.60;1.20;;;;;;;6.17;75.15;100019.53;10455426;28;20060;-71
2022/01/29 14:11:58;;;;;;;3.28;0.98;;;;;;;6.12;74.42;100005.72;10456434;28;20083;-71
2022/01/29 14:17:02;;;;;;;1.00;0.90;;;;;;;6.05;75.12;99996.22;10459211;28;20044;-71
2022/01/29 14:22:06;;;;;;;1.55;1.20;;;;;;;6.12;74.74;100010.06;10430061;28;20052;-71
2022/01/29 14:27:09;;;;;;;1.02;0.90;;;;;;;5.91;75.79;99985.09;10465049;28;20456;-71
2022/01/29 14:32:15;;;;;;;0.80;0.80;;;;;;;5.92;74.07;100011.19;10463719;28;20230;-71
2022/01/29 14:37:17;;;;;;;1.00;0.93;;;;;;;5.82;75.34;100033.88;10467288;28;20049;-70
2022/01/29 14:42:26;;;;;;;1.10;1.00;;;;;;;5.88;75.46;100019.03;10450388;28;20095;-70
2022/01/29 14:47:28;;;;;;;1.02;1.00;;;;;;;5.83;75.10;99986.03;10466171;28;20387;-71
2022/01/29 14:52:32;;;;;;;1.42;1.30;;;;;;;5.85;74.11;99962.56;10448681;28;20052;-70
2022/01/29 14:57:33;;;;;;;1.58;1.48;;;;;;;5.83;74.64;99978.22;10464718;28;20128;-71
2022/01/29 15:02:35;;;;;;;1.40;1.30;;;;;;;5.84;74.93;99971.25;10464862;28;20052;-71
2022/01/29 15:07:57;;;;;;;1.70;1.60;;;;;;;5.77;75.31;99951.38;10446623;28;20509;-70
2022/01/29 15:12:59;;;;;;;4.85;4.35;;;;;;;5.72;75.38;99945.34;10465289;28;20087;-70
2022/01/29 15:18:04;;;;;;;2.60;2.40;;;;;;;5.68;75.08;99913.25;10463900;28;20522;-71
2022/01/29 15:23:17;;;;;;;1.70;1.60;;;;;;;5.67;75.43;99910.66;10463706;28;20048;-71
2022/01/29 15:28:19;;;;;;;2.42;1.60;;;;;;;5.65;75.82;99887.19;10464433;28;20044;-71
2022/01/29 15:33:27;;;;;;;2.13;1.90;;;;;;;5.72;75.12;99870.59;10446568;28;20049;-71
2022/01/29 15:38:30;;;;;;;1.90;1.80;;;;;;;5.68;75.64;99860.22;10447165;28;20041;-70
2022/01/29 15:43:33;;;;;;;2.10;2.00;;;;;;;5.75;75.15;99862.69;10464718;28;20090;-70
2022/01/29 15:48:37;;;;;;;2.35;1.90;;;;;;;5.75;75.61;99886.16;10464192;28;20052;-70
2022/01/29 15:53:41;;;;;;;2.10;1.90;;;;;;;5.65;76.66;99874.16;10465275;28;20098;-70
2022/01/29 15:58:43;;;;;;;1.70;1.60;;;;;;;5.75;77.05;99872.25;10464223;28;20036;-69
2022/01/29 16:03:44;;;;;;;2.00;1.80;;;;;;;5.72;77.38;99859.28;10465535;28;20131;-69
2022/01/29 16:08:46;;;;;;;2.33;1.83;;;;;;;5.68;77.90;99852.41;10465407;28;20490;-72
2022/01/29 16:13:49;;;;;;;1.70;1.60;;;;;;;5.75;77.57;99844.44;10471471;28;20049;-72
2022/01/29 16:18:55;;;;;;;2.30;1.35;;;;;;;5.76;78.08;99824.47;10455548;28;20490;-72
2022/01/29 16:23:57;;;;;;;2.00;1.65;;;;;;;5.83;77.76;99837.34;10455568;28;20103;-70
2022/01/29 16:28:59;;;;;;;1.58;1.30;;;;;;;5.88;77.80;99816.41;10464400;28;20091;-73
2022/01/29 16:34:02;;;;;;;4.00;3.70;;;;;;;5.94;77.65;99826.81;10466830;28;20041;-71
2022/01/29 16:39:04;;;;;;;1.65;1.52;;;;;;;5.95;77.71;99845.94;10463909;28;20052;-73
2022/01/29 16:44:06;;;;;;;1.73;1.30;;;;;;;5.98;77.70;99830.22;10465151;28;20045;-73
2022/01/29 16:49:19;;;;;;;1.60;1.50;;;;;;;6.07;77.00;99856.16;10467036;28;20095;-72
2022/01/29 16:54:23;;;;;;;1.08;1.02;;;;;;;6.12;76.85;99841.28;10453107;28;20052;-71
2022/01/29 16:59:27;;;;;;;1.88;1.40;;;;;;;6.18;76.17;99832.50;10448112;28;20041;-70
2022/01/29 17:04:29;;;;;;;1.20;1.10;;;;;;;6.21;75.90;99811.56;10460087;28;20045;-71
2022/01/29 17:09:31;;;;;;;1.20;1.10;;;;;;;6.16;76.15;99788.16;10459965;28;20060;-70
2022/01/29 17:14:33;;;;;;;1.25;1.15;;;;;;;6.24;75.46;99769.72;10459406;28;20053;-71
2022/01/29 17:19:35;;;;;;;1.17;1.08;;;;;;;6.30;75.43;99753.97;10442745;28;20044;-69
2022/01/29 17:24:37;;;;;;;1.20;1.10;;;;;;;6.36;75.17;99743.41;10441880;28;20170;-69
2022/01/29 17:29:39;;;;;;;0.82;0.68;;;;;;;6.49;74.11;99707.47;10458280;28;20045;-69
2022/01/29 17:34:43;;;;;;;0.70;0.70;;;;;;;6.48;74.69;99730.13;10461300;28;20099;-70
2022/01/29 17:39:47;;;;;;;1.13;0.70;;;;;;;6.47;74.46;99728.41;10445091;28;20047;-69
2022/01/29 17:44:50;;;;;;;1.00;0.80;;;;;;;6.45;74.45;99724.09;10443816;28;20049;-70
2022/01/29 17:49:53;;;;;;;2.85;0.80;;;;;;;6.43;74.98;99705.84;10411353;28;20510;-70
2022/01/29 17:54:55;;;;;;;0.70;0.70;;;;;;;6.56;74.80;99670.75;10463389;28;20045;-70
2022/01/29 18:00:04;;;;;;;1.17;0.90;;;;;;;6.60;74.66;99678.50;10444777;28;20116;-70
2022/01/29 18:05:12;;;;;;;1.08;0.80;;;;;;;6.58;74.97;99658.53;10461770;28;20053;-69
2022/01/29 18:10:14;;;;;;;1.00;0.80;;;;;;;6.55;75.91;99652.50;10444949;28;20417;-70
2022/01/29 18:15:17;;;;;;;0.93;0.90;;;;;;;6.38;78.40;99639.81;10461484;28;20049;-70
2022/01/29 18:20:19;;;;;;;1.00;0.95;;;;;;;6.33;80.57;99644.28;10458301;28;20116;-69
2022/01/29 18:25:21;;;;;;;1.13;1.02;;;;;;;6.25;80.68;99647.03;10458077;28;20056;-70
2022/01/29 18:30:23;;;;;;;1.25;1.10;;;;;;;6.34;79.79;99659.06;10460704;28;20053;-70
2022/01/29 18:35:26;;;;;;;1.20;1.10;;;;;;;6.21;80.17;99662.81;10460901;28;20095;-70
2022/01/29 18:40:30;;;;;;;1.17;1.08;;;;;;;6.25;79.94;99667.06;10458514;28;20049;-69
2022/01/29 18:45:31;;;;;;;1.20;1.10;;;;;;;6.34;80.54;99690.38;10457603;28;20150;-69
2022/01/29 18:50:33;;;;;;;1.67;1.10;;;;;;;6.52;79.92;99676.09;10458415;28;20045;-69
2022/01/29 18:55:37;;;;;;;1.23;1.13;;;;;;;6.50;79.83;99672.63;10455643;28;20045;-70
2022/01/29 19:00:39;;;;;;;1.42;1.15;;;;;;;6.55;79.77;99676.00;10439269;28;20440;-70
2022/01/29 19:05:41;;;;;;;1.08;0.90;;;;;;;6.55;80.39;99642.94;10464345;28;20045;-70
2022/01/29 19:10:43;;;;;;;1.52;1.42;;;;;;;6.57;80.72;99650.72;10463473;28;20052;-69
2022/01/29 19:15:48;;;;;;;1.20;1.10;;;;;;;6.58;82.24;99657.66;10465843;28;20041;-70
2022/01/29 19:20:51;;;;;;;0.93;0.77;;;;;;;6.67;81.43;99649.63;10464470;28;20513;-71
2022/01/29 19:25:52;;;;;;;1.25;0.98;;;;;;;6.65;81.34;99648.81;10463787;28;20071;-69
2022/01/29 19:30:54;;;;;;;0.80;0.80;;;;;;;6.65;82.38;99640.97;10478633;23;20070;-74
2022/01/29 19:35:56;;;;;;;2.08;0.60;;;;;;;6.67;83.32;99613.06;10471808;28;20076;-74
2022/01/29 19:40:58;;;;;;;0.93;0.50;;;;;;;6.54;83.07;99588.97;10475216;28;20048;-75
2022/01/29 19:46:00;;;;;;;1.10;0.95;;;;;;;6.46;84.04;99613.53;10469975;28;20490;-76
2022/01/29 19:51:20;;;;;;;0.60;0.60;;;;;;;6.46;82.91;99598.75;10469463;28;20398;-74
2022/01/29 19:56:22;;;;;;;0.75;0.60;;;;;;;6.61;81.86;99589.72;10470377;28;20075;-74
2022/01/29 20:01:24;;;;;;;0.88;0.45;;;;;;;6.71;81.54;99569.44;10452558;28;20483;-74
2022/01/29 20:06:27;;;;;;;1.13;0.52;;;;;;;6.85;80.51;99583.03;10428757;28;20053;-75
2022/01/29 20:11:31;;;;;;;0.73;0.60;;;;;;;6.85;81.14;99559.53;10395106;28;20410;-75
2022/01/29 20:16:33;;;;;;;0.32;0.30;;;;;;;6.99;79.81;99544.38;10409051;28;20049;-74
2022/01/29 20:21:36;;;;;;;1.02;0.50;;;;;;;7.01;80.37;99552.19;10430128;28;20463;-74
2022/01/29 20:26:38;;;;;;;0.65;0.50;;;;;;;7.02;79.90;99539.06;10410065;28;20060;-74
2022/01/29 20:31:40;;;;;;;0.50;0.50;;;;;;;7.02;80.63;99548.66;10409579;28;20059;-74
2022/01/29 20:36:42;;;;;;;1.00;0.63;;;;;;;6.91;82.69;99566.38;10446600;28;20041;-76
2022/01/29 20:41:43;;;;;;;0.65;0.50;;;;;;;7.03;81.51;99546.00;10465891;28;20117;-74
2022/01/29 20:46:52;;;;;;;0.65;0.65;;;;;;;7.00;82.96;99527.81;10470108;28;20063;-76
2022/01/29 20:51:54;;;;;;;0.88;0.80;;;;;;;6.97;83.60;99569.69;10470836;28;20072;-74
2022/01/29 20:56:57;;;;;;;1.70;0.82;;;;;;;6.89;84.87;99576.84;10470460;28;20053;-75
2022/01/29 21:02:00;;;;;;;0.80;0.80;;;;;;;6.73;86.94;99591.16;10479234;28;20112;-77
2022/01/29 21:07:19;;;;;;;1.13;1.02;;;;;;;6.60;88.39;99566.22;10466094;28;20056;-76
2022/01/29 21:12:21;;;;;;;1.30;1.00;;;;;;;6.61;87.53;99579.25;10476653;28;20045;-77
2022/01/29 21:17:23;;;;;;;1.15;0.90;;;;;;;6.87;85.91;99596.94;10472680;28;20040;-76
2022/01/29 21:22:24;;;;;;;2.35;1.00;;;;;;;6.95;85.46;99605.47;10472296;28;20067;-76
2022/01/29 21:27:27;;;;;;;1.25;0.90;;;;;;;7.15;84.00;99597.13;10472294;28;20048;-77
2022/01/29 21:32:28;;;;;;;1.48;1.20;;;;;;;7.10;84.93;99587.69;10470040;28;20044;-76
2022/01/29 21:37:30;;;;;;;0.90;0.90;;;;;;;6.98;86.95;99614.97;10470740;28;20045;-77
2022/01/29 21:42:33;;;;;;;1.27;0.80;;;;;;;6.85;90.32;99629.22;10470068;28;20057;-76
2022/01/29 21:47:38;;;;;;;2.65;1.00;;;;;;;6.83;90.38;99637.94;10479232;28;20060;-77
2022/01/29 21:52:41;;;;;;;1.75;1.23;;;;;;;6.79;90.21;99656.34;10485639;28;20049;-75
2022/01/29 21:57:43;;;;;;;2.58;1.55;;;;;;;7.00;86.84;99637.56;10474644;28;20041;-76
2022/01/29 22:02:46;;;;;;;1.80;0.98;;;;;;;7.25;83.99;99629.13;10473278;28;20045;-76
2022/01/29 22:07:50;;;;;;;1.30;0.80;;;;;;;7.33;83.64;99648.94;10474892;28;20283;-75
2022/01/29 22:12:53;;;;;;;3.05;0.80;;;;;;;7.21;83.69;99641.41;10476261;28;20231;-76
2022/01/29 22:17:55;;;;;;;3.78;1.17;;;;;;;7.37;79.13;99682.88;10471449;28;20047;-77
2022/01/29 22:22:56;;;;;;;3.95;1.20;;;;;;;7.17;77.47;99699.91;10464538;28;20124;-77
2022/01/29 22:27:58;;;;;;;3.80;0.77;;;;;;;7.07;77.85;99717.53;10462681;28;20102;-76
2022/01/29 22:33:00;;;;;;;5.47;1.35;;;;;;;6.93;77.43;99718.75;10467013;28;20167;-77
2022/01/29 22:38:03;;;;;;;6.00;1.17;;;;;;;7.13;76.53;99729.63;10468158;28;20045;-76
2022/01/29 22:43:05;;;;;;;2.90;0.73;;;;;;;6.87;74.67;99773.75;10474035;28;20051;-77
2022/01/29 22:48:08;;;;;;;4.45;0.88;;;;;;;6.98;70.39;99750.84;10470880;28;20044;-76
2022/01/29 22:53:10;;;;;;;4.45;1.27;;;;;;;6.78;68.86;99756.50;10473901;28;20506;-77
2022/01/29 22:58:12;;;;;;;4.50;1.40;;;;;;;6.83;67.94;99772.94;10460364;28;20049;-75
2022/01/29 23:03:13;;;;;;;7.63;1.55;;;;;;;6.30;73.77;99780.94;10473176;28;20053;-76
2022/01/29 23:08:16;;;;;;;7.80;1.30;;;;;;;5.68;76.96;99775.03;10472182;28;20136;-76
2022/01/29 23:18:22;;;;;;;4.28;0.73;;;;;;;5.53;75.59;99778.75;10478451;28;20497;-77
2022/01/29 23:28:36;;;;;;;3.70;0.85;;;;;;;5.36;76.56;99792.88;10474568;28;20056;-76
2022/01/29 23:34:06;;;;;;;5.05;0.85;;;;;;;5.56;73.33;99768.25;10474087;28;20518;-76
2022/01/29 23:39:09;;;;;;;3.05;0.80;;;;;;;5.69;71.73;99776.72;10476405;28;20057;-76
2022/01/29 23:44:18;;;;;;;3.42;1.30;;;;;;;5.73;71.92;99787.97;10456015;28;20055;-76
2022/01/29 23:49:25;;;;;;;9.98;1.63;;;;;;;5.76;71.70;99783.59;10470491;28;20462;-76
2022/01/29 23:54:27;;;;;;;5.20;1.63;;;;;;;5.64;74.04;99811.59;10472466;28;20061;-76
2022/01/29 23:59:29;;;;;;;5.55;1.50;;;;;;;5.51;76.44;99814.38;10476855;28;20106;-76
